Aérodrome :
LOGIN :

S'inscrire | Disclaimer

   EN    FR    IT 

 










Légende :    VFR   VFR Marginal   IFR   IFR Intensif   IFR Très Intensif
Visi : 
Plafond : 
>= 8 km
>= 3000ft
5 à 8 km
1000 à 3000 ft
1500m à 5 km
500 à 1000 ft
800 à 1500m
200 à 500 ft
< 800m
< 200 ft
Symboles :   Orages  Brouillard  Fortes neiges  Fortes précipitations  Vent > 20 kt
SIGMETs :   Divers  Orages  Givrage  Turbulence  Onde Orograph.  Cendres Volcan.







- Altitude de l'aérodrome : 297 ft
- Code IATA : UIP
- Voir les cartes d'approche


LFRQ - Quimper Pluguffan

DERNIER METAR :
  • 171700Z AUTO 25007KT 9999 FEW015 OVC046 20/16 Q1016 TEMPO 3000 RA OVC005

METARs EXPIRÉS :
  • 171630Z AUTO 24008KT 9999 FEW017 OVC046 20/17 Q1016 TEMPO 3000 RA OVC005
  • 171600Z AUTO 23009KT 9999 FEW020 OVC047 21/16 Q1016 TEMPO 3000 RA OVC005
  • 171530Z AUTO 25010KT 9999 FEW018 OVC050 21/16 Q1017 TEMPO 3000 RA OVC005
  • 171500Z AUTO 24009KT 9999 SCT018 OVC056 22/17 Q1017 NOSIG
  • 171430Z AUTO 25010KT 230V290 9999 FEW019 SCT049 OVC056 22/16 Q1017 NOSIG

TAF TAF LFRQ
Valide du 17 à 15h jusqu'au 18 à 00h UTC


171400Z 1715/1724 23011KT 9999 BKN017
PROB30
TEMPO 1717/1724 3000 RA OVC005
Pas de NOTAMs connus pour ce terrain.



MET'MAP, la Météo Aéronautique d'un coup d'oeil ! - Copyright ORBIFLY Décembre 2007 - Disclaimer

ORBIFLY MET'MAP TEAM :

Programmation & Développement : Alexandra Zaïnal
Conception & Développement : Baudouin d'Aumeries
Co-Programmation & Développement : Marc-Olivier Méhu
Soutien technique & logistique : Manuel Goepfert

Contact : metmap@orbifly.com




SOURCES & CREDITS :

   NOAA